Time;durP1;ratioP1;P1;durP2;ratioP2;P2;SDS_P1;SDS_P2;PMS_P1;PMS_P2;Temp;Humidity;BMP_temperature;BMP_pressure;BME280_temperature;BME280_humidity;BME280_pressure;Samples;Min_cycle;Max_cycle;Signal;HPM_P1;HPM_P2
2022/12/18 00:01:31;;;;;;;70.35;30.25;;;;;;;-4.72;100.00;100948.38;5000299;28;20033;-70
2022/12/18 00:03:57;;;;;;;65.43;28.58;;;;;;;-4.71;100.00;100946.50;4984595;28;20036;-70
2022/12/18 00:06:23;;;;;;;70.43;30.35;;;;;;;-4.69;100.00;100946.31;4967724;28;20382;-69
2022/12/18 00:08:48;;;;;;;68.45;30.75;;;;;;;-4.70;100.00;100955.50;4983707;28;20022;-70
2022/12/18 00:11:15;;;;;;;66.13;29.48;;;;;;;-4.70;100.00;100955.50;5016302;28;20436;-70
2022/12/18 00:13:41;;;;;;;61.67;28.25;;;;;;;-4.70;100.00;100960.91;5001078;28;20072;-69
2022/12/18 00:16:12;;;;;;;68.00;30.02;;;;;;;-4.72;100.00;100947.53;5019474;28;20079;-69
2022/12/18 00:18:37;;;;;;;61.83;28.77;;;;;;;-4.73;100.00;100949.41;5016595;28;20774;-70
2022/12/18 00:21:05;;;;;;;66.65;28.55;;;;;;;-4.73;100.00;100946.69;4983736;28;20026;-69
2022/12/18 00:23:32;;;;;;;64.85;28.35;;;;;;;-4.70;100.00;100941.94;5017432;28;20055;-70
2022/12/18 00:26:27;;;;;;;65.75;27.48;;;;;;;-4.69;100.00;100940.91;5017008;28;20099;-70
2022/12/18 00:28:52;;;;;;;70.07;31.50;;;;;;;-4.72;100.00;100945.66;5028706;28;20030;-70
2022/12/18 00:31:22;;;;;;;62.50;29.52;;;;;;;-4.76;100.00;100941.63;5025297;28;20077;-70
2022/12/18 00:33:47;;;;;;;64.38;28.40;;;;;;;-4.76;100.00;100938.94;5019342;28;20056;-70
2022/12/18 00:36:19;;;;;;;62.88;29.20;;;;;;;-4.76;100.00;100938.94;4986481;28;20156;-70
2022/12/18 00:38:45;;;;;;;67.90;30.58;;;;;;;-4.80;100.00;100932.19;5019367;28;20026;-70
2022/12/18 00:41:11;;;;;;;66.47;29.63;;;;;;;-4.78;100.00;100927.41;5018985;28;20048;-70
2022/12/18 00:43:37;;;;;;;67.38;27.92;;;;;;;-4.78;100.00;100926.59;5002468;28;20040;-70
2022/12/18 00:46:03;;;;;;;62.60;28.40;;;;;;;-4.78;100.00;100926.59;4986297;28;20429;-69
2022/12/18 00:48:28;;;;;;;68.03;30.55;;;;;;;-4.81;100.00;100921.53;5018504;28;20026;-70
2022/12/18 00:50:54;;;;;;;64.28;28.73;;;;;;;-4.80;100.00;100915.09;5015929;28;20022;-69
2022/12/18 00:53:19;;;;;;;65.53;29.27;;;;;;;-4.79;100.00;100919.47;4999990;28;20034;-70
2022/12/18 00:55:45;;;;;;;70.13;29.52;;;;;;;-4.79;100.00;100923.03;5002513;28;20044;-70
2022/12/18 00:58:11;;;;;;;66.43;29.88;;;;;;;-4.77;100.00;100926.38;4999374;28;20045;-70
2022/12/18 01:00:36;;;;;;;67.35;29.02;;;;;;;-4.79;100.00;100927.59;5015392;28;20060;-70
2022/12/18 01:03:02;;;;;;;72.15;30.80;;;;;;;-4.78;100.00;100929.28;5015257;28;20053;-70
2022/12/18 01:05:27;;;;;;;65.38;28.70;;;;;;;-4.80;100.00;100924.03;5010797;28;20088;-70
2022/12/18 01:07:53;;;;;;;67.43;30.20;;;;;;;-4.80;100.00;100923.22;4999268;28;20062;-70
2022/12/18 01:10:18;;;;;;;63.42;28.42;;;;;;;-4.82;100.00;100915.28;4998539;28;20026;-70
2022/12/18 01:12:44;;;;;;;62.83;29.40;;;;;;;-4.77;100.00;100923.69;5002217;28;20536;-70
2022/12/18 01:15:10;;;;;;;64.50;29.13;;;;;;;-4.77;100.00;100925.56;5031987;28;20030;-70
2022/12/18 01:17:35;;;;;;;66.13;28.88;;;;;;;-4.78;100.00;100932.84;4966566;28;20037;-70
2022/12/18 01:20:01;;;;;;;69.65;29.95;;;;;;;-4.76;100.00;100916.41;4998681;28;20045;-70
2022/12/18 01:22:26;;;;;;;64.43;28.88;;;;;;;-4.74;100.00;100914.34;5012339;28;20062;-70
2022/12/18 01:24:52;;;;;;;70.05;28.67;;;;;;;-4.76;100.00;100914.53;5010119;28;20186;-70
2022/12/18 01:27:17;;;;;;;65.18;28.67;;;;;;;-4.76;100.00;100908.28;5016442;28;20033;-70
2022/12/18 01:29:42;;;;;;;69.82;30.02;;;;;;;-4.74;100.00;100901.63;5016456;28;20421;-70
2022/12/18 01:32:08;;;;;;;65.13;29.77;;;;;;;-4.73;100.00;100894.38;5014903;28;20041;-69
2022/12/18 01:34:35;;;;;;;64.57;28.63;;;;;;;-4.74;100.00;100892.66;4998733;28;20038;-70
2022/12/18 01:37:05;;;;;;;67.95;29.42;;;;;;;-4.70;100.00;100882.31;4982480;28;20046;-70
2022/12/18 01:39:31;;;;;;;66.85;30.35;;;;;;;-4.70;100.00;100883.16;4998449;28;20030;-70
2022/12/18 01:42:06;;;;;;;67.80;29.33;;;;;;;-4.68;100.00;100893.78;4982640;28;20497;-70
2022/12/18 01:44:54;;;;;;;64.90;27.38;;;;;;;-4.67;100.00;100890.06;4984813;28;20047;-70
2022/12/18 01:47:36;;;;;;;62.50;27.15;;;;;;;-4.68;100.00;100891.94;4998537;28;20033;-70
2022/12/18 01:50:26;;;;;;;63.63;28.55;;;;;;;-4.68;100.00;100889.22;4998613;28;20105;-70
2022/12/18 01:53:08;;;;;;;64.25;28.95;;;;;;;-4.68;100.00;100886.53;5004753;28;20034;-70
2022/12/18 01:55:51;;;;;;;62.15;29.38;;;;;;;-4.67;100.00;100900.91;5021881;28;20045;-70
2022/12/18 01:58:18;;;;;;;65.88;28.65;;;;;;;-4.66;100.00;100902.59;4987214;28;20030;-70
2022/12/18 02:00:44;;;;;;;66.57;29.38;;;;;;;-4.67;100.00;100911.75;5002784;28;20189;-69
2022/12/18 02:03:09;;;;;;;64.32;28.45;;;;;;;-4.68;100.00;100918.19;5011304;28;20027;-69
2022/12/18 02:05:55;;;;;;;61.08;26.60;;;;;;;-4.63;100.00;100929.31;5015342;28;20033;-69
2022/12/18 02:08:32;;;;;;;65.93;28.38;;;;;;;-4.61;100.00;100927.28;5003625;28;20037;-70
2022/12/18 02:11:12;;;;;;;59.92;27.20;;;;;;;-4.63;100.00;100926.59;5018450;28;20038;-69
2022/12/18 02:13:45;;;;;;;59.60;28.13;;;;;;;-4.63;100.00;100923.91;5002286;28;20042;-69
2022/12/18 02:16:24;;;;;;;62.85;28.10;;;;;;;-4.63;100.00;100907.63;5018654;28;20084;-69
2022/12/18 02:18:53;;;;;;;63.38;28.40;;;;;;;-4.63;100.00;100902.22;5002005;28;20389;-69
2022/12/18 02:21:34;;;;;;;61.50;27.00;;;;;;;-4.60;100.00;100896.41;5002609;28;20026;-70
2022/12/18 02:24:54;;;;;;;63.50;28.30;;;;;;;-4.63;100.00;100913.06;5020009;28;20034;-70
2022/12/18 02:27:20;;;;;;;63.92;28.48;;;;;;;-4.61;100.00;100905.59;4981231;28;20080;-69
2022/12/18 02:29:52;;;;;;;60.38;26.63;;;;;;;-4.58;100.00;100908.75;4997606;28;20045;-69
2022/12/18 02:32:28;;;;;;;56.78;26.80;;;;;;;-4.57;100.00;100902.34;4986370;28;20498;-70
2022/12/18 02:34:55;;;;;;;64.15;29.02;;;;;;;-4.56;100.00;100904.00;5002062;28;20030;-70
2022/12/18 02:37:20;;;;;;;61.70;27.40;;;;;;;-4.55;100.00;100894.00;4985654;28;20133;-70
2022/12/18 02:39:47;;;;;;;60.70;27.77;;;;;;;-4.54;100.00;100893.81;5001367;28;20037;-69
2022/12/18 02:42:12;;;;;;;60.42;26.60;;;;;;;-4.53;100.00;100891.94;5001984;28;20030;-70
2022/12/18 02:44:45;;;;;;;66.40;28.13;;;;;;;-4.55;100.00;100899.41;5001887;28;20036;-69
2022/12/18 02:47:12;;;;;;;58.30;27.27;;;;;;;-4.56;100.00;100892.31;4998353;28;20539;-70
2022/12/18 02:50:18;;;;;;;62.72;27.42;;;;;;;-4.53;100.00;100891.94;5023788;28;20030;-70
2022/12/18 02:53:06;;;;;;;62.15;27.05;;;;;;;-4.54;100.00;100885.69;5020774;28;20030;-70
2022/12/18 02:56:05;;;;;;;58.47;27.10;;;;;;;-4.53;100.00;100881.09;5007533;28;20032;-70
2022/12/18 02:58:56;;;;;;;65.30;29.38;;;;;;;-4.51;100.00;100876.34;5018034;28;20030;-69
2022/12/18 03:01:43;;;;;;;67.20;29.38;;;;;;;-4.52;100.00;100875.47;5003802;28;20080;-70
2022/12/18 03:04:13;;;;;;;61.28;28.75;;;;;;;-4.52;100.00;100880.06;5003011;28;20030;-69
2022/12/18 03:06:41;;;;;;;58.92;27.52;;;;;;;-4.52;100.00;100877.34;5019912;28;20030;-69
2022/12/18 03:09:12;;;;;;;63.10;28.23;;;;;;;-4.52;100.00;100875.47;5001407;28;20026;-70
2022/12/18 03:14:23;;;;;;;62.22;27.77;;;;;;;-4.51;100.00;100869.06;5026750;28;20462;-70
2022/12/18 03:16:50;;;;;;;65.78;28.42;;;;;;;-4.47;100.00;100863.25;5032612;28;20053;-70
2022/12/18 03:19:17;;;;;;;60.70;28.52;;;;;;;-4.50;100.00;100867.19;5037601;28;20034;-69
2022/12/18 03:21:48;;;;;;;57.28;28.23;;;;;;;-4.49;100.00;100871.56;4988318;28;20516;-70
2022/12/18 03:24:14;;;;;;;57.25;28.98;;;;;;;-4.51;100.00;100874.47;5021400;28;20421;-70
2022/12/18 03:26:41;;;;;;;65.63;29.55;;;;;;;-4.49;100.00;100869.69;5022641;28;20030;-69
2022/12/18 03:29:08;;;;;;;63.53;28.38;;;;;;;-4.45;100.00;100866.63;4984745;28;20489;-70
2022/12/18 03:31:37;;;;;;;64.10;29.33;;;;;;;-4.46;100.00;100863.06;5005248;28;20033;-70
2022/12/18 03:34:04;;;;;;;62.13;29.13;;;;;;;-4.47;100.00;100868.69;4984636;28;20040;-70
2022/12/18 03:36:30;;;;;;;63.45;28.60;;;;;;;-4.46;100.00;100863.06;5001133;28;20092;-70
2022/12/18 03:38:59;;;;;;;60.20;28.25;;;;;;;-4.46;100.00;100860.34;5003107;28;20029;-70
2022/12/18 03:41:31;;;;;;;61.85;27.85;;;;;;;-4.44;100.00;100862.88;5017634;28;20049;-70
2022/12/18 03:44:13;;;;;;;61.03;27.73;;;;;;;-4.41;100.00;100873.34;5025672;28;20450;-70
2022/12/18 03:47:20;;;;;;;65.25;30.35;;;;;;;-4.40;100.00;100869.59;5018039;28;20498;-69
2022/12/18 03:49:59;;;;;;;63.78;29.23;;;;;;;-4.40;100.00;100881.31;5022098;28;20033;-69
2022/12/18 03:52:46;;;;;;;58.63;26.58;;;;;;;-4.39;100.00;100882.97;5033920;28;20045;-70
2022/12/18 03:55:11;;;;;;;59.40;27.90;;;;;;;-4.35;100.00;100886.16;5019953;28;20053;-70
2022/12/18 03:57:37;;;;;;;56.88;26.95;;;;;;;-4.35;100.00;100883.44;4984715;28;21424;-70
2022/12/18 04:00:06;;;;;;;58.67;27.10;;;;;;;-4.37;100.00;100885.50;5018294;28;20030;-70
2022/12/18 04:02:31;;;;;;;64.90;29.83;;;;;;;-4.36;100.00;100879.88;5042706;28;20033;-70
2022/12/18 04:04:58;;;;;;;61.72;28.95;;;;;;;-4.34;100.00;100869.69;4994331;28;20595;-69
2022/12/18 04:07:24;;;;;;;67.80;29.67;;;;;;;-4.33;100.00;100870.53;5036596;28;20044;-70
2022/12/18 04:09:50;;;;;;;63.13;28.63;;;;;;;-4.30;100.00;100860.16;5018799;28;20033;-70
2022/12/18 04:12:15;;;;;;;58.83;27.40;;;;;;;-4.27;100.00;100859.78;5035028;28;20081;-70
2022/12/18 04:14:41;;;;;;;64.88;28.77;;;;;;;-4.24;100.00;100874.00;5030435;28;20045;-69
2022/12/18 04:17:06;;;;;;;67.38;28.50;;;;;;;-4.21;100.00;100879.03;5003226;28;20072;-70
2022/12/18 04:19:32;;;;;;;62.90;28.58;;;;;;;-4.20;100.00;100884.28;5012825;28;20037;-70
2022/12/18 04:21:57;;;;;;;58.83;28.25;;;;;;;-4.19;100.00;100888.66;5018320;28;20529;-70
2022/12/18 04:24:23;;;;;;;65.25;28.50;;;;;;;-4.15;100.00;100889.13;5011961;28;20046;-69
2022/12/18 04:26:48;;;;;;;67.82;29.17;;;;;;;-4.15;100.00;100895.41;4999719;28;20498;-70
2022/12/18 04:29:13;;;;;;;64.82;29.58;;;;;;;-4.13;100.00;100885.19;4999790;28;20418;-70
2022/12/18 04:31:39;;;;;;;59.47;28.67;;;;;;;-4.10;100.00;100882.09;5032503;28;20053;-70
2022/12/18 04:34:05;;;;;;;63.03;29.23;;;;;;;-4.07;100.00;100884.47;5016192;28;20029;-70
2022/12/18 04:36:30;;;;;;;66.80;29.95;;;;;;;-4.06;100.00;100879.88;4983050;28;20066;-70
2022/12/18 04:38:56;;;;;;;67.15;29.38;;;;;;;-4.01;100.00;100882.88;4999600;28;20037;-70
2022/12/18 04:41:21;;;;;;;61.20;28.48;;;;;;;-4.01;100.00;100879.28;4999426;28;20030;-69
2022/12/18 04:43:47;;;;;;;63.92;29.45;;;;;;;-4.01;100.00;100879.28;4993659;28;20029;-70
2022/12/18 04:46:12;;;;;;;64.10;28.58;;;;;;;-3.99;100.00;100880.78;5018977;28;20030;-70
2022/12/18 04:48:38;;;;;;;61.78;28.90;;;;;;;-3.96;100.00;100882.28;5001278;28;20029;-70
2022/12/18 04:51:04;;;;;;;57.40;28.00;;;;;;;-3.93;100.00;100876.47;5016727;28;20069;-70
2022/12/18 04:53:29;;;;;;;65.03;27.88;;;;;;;-3.91;100.00;100880.69;4986868;28;20048;-70
2022/12/18 04:56:09;;;;;;;65.18;28.80;;;;;;;-3.91;100.00;100875.25;4984401;28;20034;-70
2022/12/18 04:58:35;;;;;;;63.97;28.95;;;;;;;-3.90;100.00;100876.94;5002369;28;20096;-70
2022/12/18 05:01:01;;;;;;;63.67;29.95;;;;;;;-3.88;100.00;100880.28;5035752;28;20030;-69
2022/12/18 05:03:26;;;;;;;62.92;28.73;;;;;;;-3.84;100.00;100891.63;4991715;28;20033;-70
2022/12/18 05:05:52;;;;;;;56.88;27.80;;;;;;;-3.83;100.00;100880.56;5025147;28;20026;-70
2022/12/18 05:08:17;;;;;;;61.67;28.80;;;;;;;-3.79;100.00;100877.47;5015641;28;20080;-70
2022/12/18 05:10:43;;;;;;;60.65;28.42;;;;;;;-3.77;100.00;100883.56;4998961;28;20530;-70
2022/12/18 05:13:09;;;;;;;65.60;28.38;;;;;;;-3.75;100.00;100868.75;4999273;28;20037;-70
2022/12/18 05:15:34;;;;;;;61.70;28.85;;;;;;;-3.76;100.00;100866.22;4983060;28;20488;-70
2022/12/18 05:18:00;;;;;;;57.22;27.38;;;;;;;-3.73;100.00;100865.84;5015322;28;20030;-70
2022/12/18 05:20:25;;;;;;;63.30;28.55;;;;;;;-3.71;100.00;100869.22;5015322;28;20088;-70
2022/12/18 05:22:51;;;;;;;60.88;28.42;;;;;;;-3.70;100.00;100865.47;4999322;28;20030;-70
2022/12/18 05:25:17;;;;;;;61.28;29.10;;;;;;;-3.67;100.00;100855.06;4998567;28;20038;-70
2022/12/18 05:27:42;;;;;;;62.03;28.70;;;;;;;-3.66;100.00;100851.31;4999051;28;20025;-70
2022/12/18 05:30:09;;;;;;;56.80;27.70;;;;;;;-3.64;100.00;100851.13;5002517;28;20029;-70
2022/12/18 05:32:34;;;;;;;62.00;28.90;;;;;;;-3.63;100.00;100833.81;5024061;28;20034;-70
2022/12/18 05:35:00;;;;;;;57.45;27.73;;;;;;;-3.61;100.00;100831.75;5002811;28;20025;-70
2022/12/18 05:37:25;;;;;;;57.58;28.50;;;;;;;-3.61;100.00;100824.44;5024020;28;20062;-70
2022/12/18 05:39:51;;;;;;;61.40;29.30;;;;;;;-3.58;100.00;100816.94;5031284;28;20026;-70
2022/12/18 05:42:16;;;;;;;62.40;29.80;;;;;;;-3.57;100.00;100815.91;5025939;28;20036;-70
2022/12/18 05:44:42;;;;;;;64.68;27.98;;;;;;;-3.54;100.00;100816.34;5001189;28;20064;-70
2022/12/18 05:47:08;;;;;;;58.28;27.48;;;;;;;-3.54;100.00;100819.06;4998730;28;20127;-69
2022/12/18 05:49:33;;;;;;;59.72;27.80;;;;;;;-3.52;100.00;100817.00;5019700;28;20033;-70
2022/12/18 05:51:59;;;;;;;58.80;29.20;;;;;;;-3.50;100.00;100795.94;5023449;28;20030;-70
2022/12/18 05:54:27;;;;;;;58.95;27.75;;;;;;;-3.49;100.00;100781.31;4997840;28;20037;-70
2022/12/18 05:56:52;;;;;;;58.13;27.85;;;;;;;-3.47;100.00;100773.81;4998619;28;20037;-70
2022/12/18 05:59:18;;;;;;;62.08;27.90;;;;;;;-3.45;100.00;100779.91;5031469;28;20034;-70
2022/12/18 06:01:43;;;;;;;63.22;29.13;;;;;;;-3.43;100.00;100780.53;5014884;28;20033;-70
2022/12/18 06:04:09;;;;;;;55.10;26.67;;;;;;;-3.42;100.00;100775.94;5025615;28;20033;-70
2022/12/18 06:06:34;;;;;;;60.55;28.25;;;;;;;-3.39;100.00;100781.81;5034455;28;20098;-70
2022/12/18 06:09:01;;;;;;;56.33;27.55;;;;;;;-3.38;100.00;100775.34;4985380;28;20022;-70
2022/12/18 06:11:26;;;;;;;57.63;28.17;;;;;;;-3.33;100.00;100773.94;5000942;28;20421;-70
2022/12/18 06:13:53;;;;;;;67.25;28.23;;;;;;;-3.32;100.00;100773.72;4998377;28;20034;-70
2022/12/18 06:16:18;;;;;;;61.42;28.88;;;;;;;-3.32;100.00;100770.16;4994218;28;20076;-70
2022/12/18 06:18:44;;;;;;;60.40;27.73;;;;;;;-3.29;100.00;100761.63;5018112;28;20029;-70
2022/12/18 06:21:09;;;;;;;59.55;28.08;;;;;;;-3.27;100.00;100762.28;5034368;28;20033;-70
2022/12/18 06:23:35;;;;;;;58.08;27.70;;;;;;;-3.25;100.00;100761.03;5017986;28;20087;-69
2022/12/18 06:26:05;;;;;;;61.80;29.60;;;;;;;-3.21;100.00;100756.03;4992970;28;20033;-70
2022/12/18 06:28:31;;;;;;;62.80;28.55;;;;;;;-3.18;100.00;100761.06;5039720;28;20447;-70
2022/12/18 06:30:56;;;;;;;60.75;27.77;;;;;;;-3.17;100.00;100768.22;5016878;28;20033;-70
2022/12/18 06:33:22;;;;;;;60.88;29.77;;;;;;;-3.14;100.00;100759.66;5018054;28;20026;-70
2022/12/18 06:35:47;;;;;;;66.07;29.75;;;;;;;-3.14;100.00;100756.94;5034130;28;20038;-70
2022/12/18 06:38:13;;;;;;;70.32;30.65;;;;;;;-3.12;100.00;100763.03;5034089;28;20033;-70
2022/12/18 06:40:39;;;;;;;62.63;29.00;;;;;;;-3.09;100.00;100764.47;5005861;28;20037;-70
2022/12/18 06:43:05;;;;;;;69.22;28.98;;;;;;;-3.07;100.00;100765.13;5000217;28;20105;-70
2022/12/18 06:45:30;;;;;;;61.67;30.48;;;;;;;-3.06;100.00;100758.69;5018185;28;20117;-70
2022/12/18 06:47:56;;;;;;;62.85;29.02;;;;;;;-3.01;100.00;100758.91;5001979;28;20030;-70
2022/12/18 06:50:21;;;;;;;61.67;29.13;;;;;;;-2.99;100.00;100765.81;5004761;28;20046;-70
2022/12/18 06:52:47;;;;;;;57.80;27.98;;;;;;;-2.95;100.00;100763.56;5017830;28;20394;-70
2022/12/18 06:55:12;;;;;;;64.95;30.23;;;;;;;-2.95;100.00;100760.84;5025213;28;20033;-70
2022/12/18 06:57:38;;;;;;;64.53;31.55;;;;;;;-2.93;100.00;100758.75;5001365;28;20022;-70
2022/12/18 07:00:05;;;;;;;62.38;29.95;;;;;;;-2.90;100.00;100749.34;5034305;28;20434;-70
2022/12/18 07:02:30;;;;;;;64.40;29.63;;;;;;;-2.86;100.00;100754.19;5028918;28;20038;-70
2022/12/18 07:04:55;;;;;;;59.55;29.73;;;;;;;-2.84;100.00;100760.28;5014363;28;20041;-70
2022/12/18 07:07:21;;;;;;;61.38;29.88;;;;;;;-2.81;100.00;100759.03;4999515;28;20026;-70
2022/12/18 07:09:46;;;;;;;62.63;29.23;;;;;;;-2.78;100.00;100767.63;5001079;28;20033;-70
2022/12/18 07:12:12;;;;;;;59.10;29.05;;;;;;;-2.76;100.00;100765.56;5017447;28;20029;-70
2022/12/18 07:14:38;;;;;;;69.50;31.13;;;;;;;-2.72;100.00;100760.56;5017595;28;20088;-70
2022/12/18 07:17:03;;;;;;;64.25;29.95;;;;;;;-2.72;100.00;100757.84;5001052;28;20086;-70
2022/12/18 07:19:29;;;;;;;68.10;30.83;;;;;;;-2.69;100.00;100762.88;5001373;28;20046;-70
2022/12/18 07:21:54;;;;;;;62.97;28.50;;;;;;;-2.65;100.00;100760.56;5002705;28;20029;-70
2022/12/18 07:24:20;;;;;;;62.00;28.45;;;;;;;-2.62;100.00;100771.91;5016309;28;20450;-70
2022/12/18 07:26:46;;;;;;;66.57;29.58;;;;;;;-2.60;100.00;100775.25;5007029;28;20041;-70
2022/12/18 07:29:11;;;;;;;62.60;29.95;;;;;;;-2.55;100.00;100761.88;5017632;28;20030;-70
2022/12/18 07:31:37;;;;;;;70.10;30.70;;;;;;;-2.53;100.00;100758.97;5033532;28;20033;-70
2022/12/18 07:34:02;;;;;;;72.10;33.08;;;;;;;-2.49;100.00;100763.78;5000810;28;20471;-70
2022/12/18 07:36:28;;;;;;;70.72;29.55;;;;;;;-2.48;100.00;100767.34;5017651;28;20068;-70
2022/12/18 07:38:53;;;;;;;66.95;30.52;;;;;;;-2.46;100.00;100757.13;5016581;28;20037;-70
2022/12/18 07:41:19;;;;;;;71.93;31.02;;;;;;;-2.42;100.00;100761.13;5000391;28;20091;-70
2022/12/18 07:43:44;;;;;;;63.30;29.83;;;;;;;-2.39;100.00;100759.88;5019782;28;20108;-70
2022/12/18 07:46:10;;;;;;;63.25;29.90;;;;;;;-2.38;100.00;100761.56;5019452;28;20505;-70
2022/12/18 07:48:35;;;;;;;63.55;29.42;;;;;;;-2.35;100.00;100763.84;4994140;28;20055;-70
2022/12/18 07:51:03;;;;;;;65.32;30.83;;;;;;;-2.33;100.00;100767.22;5019538;28;20040;-70
2022/12/18 07:53:29;;;;;;;66.03;31.10;;;;;;;-2.29;100.00;100750.28;4996780;28;20057;-70
2022/12/18 07:56:05;;;;;;;65.28;31.35;;;;;;;-2.26;100.00;100749.03;5000673;28;20486;-70
2022/12/18 07:58:31;;;;;;;69.57;31.08;;;;;;;-2.23;100.00;100743.16;5021579;28;20034;-70
2022/12/18 08:01:06;;;;;;;66.15;31.40;;;;;;;-2.19;100.00;100749.06;5019245;28;20026;-70
2022/12/18 08:03:32;;;;;;;68.28;31.50;;;;;;;-2.17;100.00;100750.53;5024437;28;20026;-70
2022/12/18 08:06:01;;;;;;;73.03;33.13;;;;;;;-2.15;100.00;100753.88;5015798;28;20394;-70
2022/12/18 08:08:27;;;;;;;68.72;30.13;;;;;;;-2.12;100.00;100744.47;5016199;28;20082;-70
2022/12/18 08:10:53;;;;;;;66.55;31.52;;;;;;;-2.10;100.00;100754.09;5015363;28;20025;-70
2022/12/18 08:13:19;;;;;;;70.05;31.85;;;;;;;-2.06;100.00;100752.66;4999660;28;20037;-70
2022/12/18 08:15:44;;;;;;;69.45;31.73;;;;;;;-2.02;100.00;100751.19;5016001;28;20061;-70
2022/12/18 08:18:10;;;;;;;69.13;32.50;;;;;;;-2.00;100.00;100748.28;4999461;28;20474;-70
2022/12/18 08:20:35;;;;;;;67.57;31.23;;;;;;;-1.97;100.00;100747.03;5015367;28;20042;-70
2022/12/18 08:23:01;;;;;;;68.93;31.20;;;;;;;-1.95;100.00;100750.38;4994946;28;20036;-70
2022/12/18 08:25:26;;;;;;;63.47;30.17;;;;;;;-1.92;100.00;100745.38;5047426;28;20038;-70
2022/12/18 08:27:52;;;;;;;71.07;33.38;;;;;;;-1.90;100.00;100742.44;5044038;28;20031;-70
2022/12/18 08:30:17;;;;;;;68.65;30.60;;;;;;;-1.89;100.00;100744.13;4998808;28;20026;-70
2022/12/18 08:32:43;;;;;;;67.68;32.03;;;;;;;-1.88;100.00;100757.50;5015321;28;20029;-70
2022/12/18 08:35:08;;;;;;;64.13;31.00;;;;;;;-1.86;100.00;100754.59;5016647;28;20041;-70
2022/12/18 08:37:34;;;;;;;70.03;32.42;;;;;;;-1.82;100.00;100751.25;4982764;28;20140;-71
2022/12/18 08:39:59;;;;;;;66.10;32.00;;;;;;;-1.80;100.00;100749.16;5016550;28;20045;-70
2022/12/18 08:45:10;;;;;;;66.35;30.77;;;;;;;-1.78;100.00;100735.34;5024965;28;20478;-70
2022/12/18 08:47:35;;;;;;;63.50;30.08;;;;;;;-1.74;100.00;100736.59;5011700;28;20035;-70
2022/12/18 08:50:01;;;;;;;68.50;31.38;;;;;;;-1.72;100.00;100725.50;4990971;28;20394;-71
2022/12/18 08:52:26;;;;;;;65.72;30.88;;;;;;;-1.71;100.00;100736.19;5020871;28;20032;-71
2022/12/18 08:54:52;;;;;;;65.20;30.20;;;;;;;-1.70;100.00;100734.28;5032897;28;20475;-70
2022/12/18 08:57:17;;;;;;;65.38;30.63;;;;;;;-1.67;100.00;100731.16;5021113;28;20030;-71
2022/12/18 08:59:43;;;;;;;64.95;30.13;;;;;;;-1.64;100.00;100730.75;5016340;28;20483;-71
2022/12/18 09:02:10;;;;;;;68.07;31.13;;;;;;;-1.62;100.00;100744.97;5016725;28;20037;-71
2022/12/18 09:04:36;;;;;;;71.05;30.77;;;;;;;-1.63;100.00;100738.69;5013610;28;20029;-71
2022/12/18 09:07:01;;;;;;;63.78;29.65;;;;;;;-1.62;100.00;100737.63;5015762;28;20029;-71
2022/12/18 09:09:26;;;;;;;76.68;33.47;;;;;;;-1.57;100.00;100740.59;5018875;28;20565;-71
2022/12/18 09:11:52;;;;;;;69.10;31.75;;;;;;;-1.55;100.00;100736.84;5016073;28;20038;-72
2022/12/18 09:14:17;;;;;;;70.22;31.45;;;;;;;-1.55;100.00;100742.28;5016057;28;20036;-71
2022/12/18 09:16:43;;;;;;;65.82;30.33;;;;;;;-1.53;100.00;100741.03;5015838;28;20026;-72
2022/12/18 09:19:08;;;;;;;70.53;31.63;;;;;;;-1.47;100.00;100737.47;5016077;28;20030;-72
2022/12/18 09:21:38;;;;;;;70.07;32.30;;;;;;;-1.48;100.00;100735.75;5010294;28;20504;-72
2022/12/18 09:24:04;;;;;;;73.63;32.58;;;;;;;-1.46;100.00;100730.94;5014635;28;20037;-72
2022/12/18 09:26:30;;;;;;;74.55;33.28;;;;;;;-1.41;100.00;100730.34;5016344;28;20053;-72
2022/12/18 09:28:55;;;;;;;74.90;33.15;;;;;;;-1.39;100.00;100731.81;5015963;28;20022;-73
2022/12/18 09:31:22;;;;;;;65.32;30.27;;;;;;;-1.36;100.00;100733.28;5040012;28;20073;-72
2022/12/18 09:33:47;;;;;;;66.88;30.73;;;;;;;-1.32;100.00;100728.22;5035446;28;20466;-72
2022/12/18 09:36:15;;;;;;;68.03;31.05;;;;;;;-1.31;100.00;100736.22;5035169;28;20049;-73
2022/12/18 09:38:41;;;;;;;70.10;32.88;;;;;;;-1.31;100.00;100736.22;5034071;28;20039;-72
2022/12/18 09:41:15;;;;;;;68.65;31.13;;;;;;;-1.26;100.00;100739.13;5014518;28;20034;-72
2022/12/18 09:43:44;;;;;;;70.25;31.52;;;;;;;-1.25;100.00;100734.53;5014466;28;20041;-72
2022/12/18 09:46:11;;;;;;;71.28;31.35;;;;;;;-1.22;100.00;100745.00;4998092;28;20038;-72
2022/12/18 09:48:42;;;;;;;67.22;32.13;;;;;;;-1.17;100.00;100739.72;5014162;28;20032;-72
2022/12/18 09:51:23;;;;;;;72.47;32.53;;;;;;;-1.16;100.00;100755.88;4998099;28;20419;-72
2022/12/18 09:53:56;;;;;;;71.13;32.08;;;;;;;-1.14;100.00;100758.41;5014126;28;20382;-72
2022/12/18 09:56:22;;;;;;;70.20;30.70;;;;;;;-1.09;100.00;100755.03;5003923;28;20034;-72
2022/12/18 09:58:59;;;;;;;67.30;32.45;;;;;;;-1.06;100.00;100749.16;5017242;28;20475;-72
2022/12/18 10:01:24;;;;;;;76.85;34.50;;;;;;;-1.04;100.00;100749.78;4997767;28;20113;-72
2022/12/18 10:03:53;;;;;;;75.32;34.70;;;;;;;-1.04;100.00;100747.91;5015153;28;20498;-72
2022/12/18 10:06:32;;;;;;;76.03;33.30;;;;;;;-1.01;100.00;100744.75;5006270;28;20029;-72
2022/12/18 10:09:22;;;;;;;79.88;34.80;;;;;;;-0.98;100.00;100746.22;5017388;28;20418;-72
2022/12/18 10:11:57;;;;;;;82.15;34.38;;;;;;;-0.98;100.00;100741.59;5008747;28;20542;-72
2022/12/18 10:14:48;;;;;;;85.93;36.50;;;;;;;-0.98;100.00;100740.75;5015201;28;20030;-72
2022/12/18 10:17:20;;;;;;;79.75;35.85;;;;;;;-0.96;100.00;100742.22;5035622;28;20028;-72
2022/12/18 10:19:54;;;;;;;76.45;32.78;;;;;;;-0.93;100.00;100751.88;5037585;28;20029;-72
2022/12/18 10:22:41;;;;;;;84.50;35.13;;;;;;;-0.91;100.00;100727.97;5038925;28;20557;-72
2022/12/18 10:25:24;;;;;;;82.93;35.45;;;;;;;-0.90;100.00;100722.28;5036962;28;20096;-72
2022/12/18 10:27:52;;;;;;;79.75;35.35;;;;;;;-0.86;100.00;100719.13;5017540;28;20030;-72
2022/12/18 10:30:20;;;;;;;79.32;36.63;;;;;;;-0.86;100.00;100700.91;5001344;28;20367;-71
2022/12/18 10:32:45;;;;;;;82.45;36.75;;;;;;;-0.85;100.00;100708.03;5018976;28;20034;-71
2022/12/18 10:35:37;;;;;;;80.68;35.70;;;;;;;-0.85;100.00;100686.19;5021786;28;20074;-71
2022/12/18 10:38:03;;;;;;;90.43;37.17;;;;;;;-0.83;100.00;100677.81;5018163;28;20705;-71
2022/12/18 10:40:29;;;;;;;81.00;35.92;;;;;;;-0.81;100.00;100695.63;5018442;28;20382;-72
2022/12/18 10:43:14;;;;;;;91.95;38.10;;;;;;;-0.80;100.00;100699.22;5017466;28;20033;-72
2022/12/18 10:45:40;;;;;;;85.55;37.28;;;;;;;-0.79;100.00;100701.69;5018686;28;20109;-72
2022/12/18 10:48:16;;;;;;;86.38;38.63;;;;;;;-0.74;100.00;100693.72;5016581;28;20033;-71
2022/12/18 10:50:42;;;;;;;84.15;37.15;;;;;;;-0.73;100.00;100681.75;5017345;28;20026;-73
2022/12/18 10:53:16;;;;;;;78.82;34.63;;;;;;;-0.71;100.00;100676.91;4988400;28;20038;-72
2022/12/18 10:55:44;;;;;;;83.85;36.88;;;;;;;-0.70;100.00;100673.16;5023121;28;20033;-72
2022/12/18 10:58:22;;;;;;;82.88;36.33;;;;;;;-0.66;100.00;100668.09;5025690;28;20045;-71
2022/12/18 11:01:08;;;;;;;74.97;34.97;;;;;;;-0.64;100.00;100665.13;5017045;28;20034;-72
2022/12/18 11:04:01;;;;;;;82.95;36.08;;;;;;;-0.65;100.00;100667.03;5007921;28;20048;-70
2022/12/18 11:06:26;;;;;;;82.63;37.22;;;;;;;-0.62;100.00;100665.75;5048066;28;20049;-71
2022/12/18 11:09:00;;;;;;;83.10;36.08;;;;;;;-0.62;100.00;100669.31;5002702;28;20072;-71
2022/12/18 11:11:26;;;;;;;78.88;37.50;;;;;;;-0.60;100.00;100660.94;5000303;28;20070;-71
2022/12/18 11:14:04;;;;;;;78.05;36.63;;;;;;;-0.59;100.00;100662.59;4984256;28;20105;-71
2022/12/18 11:16:33;;;;;;;75.40;36.30;;;;;;;-0.57;100.00;100655.88;5027984;28;20478;-72